Tiempo atmosférico en la estación meteorológica de Tinajo, Las Palmas (275 m.)



Fecha
DESCASC
Temp. máxima en grados centígrados (hora)
DESCASC
Temp. mínima en grados centígrados (hora)
DESCASC
Temp. media en grados centígrados
DESCASC
Racha de viento máxima en m/sg (hora)
DESCASC
Velocidad máxima media en intervalos de 10 minutos(hora)
DESCASC
Precipitaciones diarias en mm
DESCASC
Precipitaciones de 00:00 a 06:00 en mm
DESCASC
Precipitaciones de 06:00 a 12:00 en mm
DESCASC
Precipitaciones de 12:00 a 18:00 en mm
DESCASC
Precipitaciones de 18:00 a 24:00 en mm
DESCASC
13-01-2021 18.2 (15:20) 10.4 (07:20) 14.3 12.5 (03:10) 8.06 (03:00) 0 0 0 0 0
12-01-2021 16 (13:10) 11.2 (06:20) 13.6 10.83 (23:59) 6.67 (23:59) 0 0 0 0 0
11-01-2021 14.9 (12:00) 11.9 (22:50) 13.4 11.67 (15:40) 7.78 (14:50) 3.6 0 2 1.6 0
10-01-2021 15 (13:30) 11.7 (18:50) 13.3 18.61 (05:30) 10.83 (05:40) 5.8 2.2 2 1.2 0.4
09-01-2021 13.9 (15:30) 9.8 (00:00) 11.8 16.11 (11:20) 9.17 (11:20) 8.2 2.2 6 0 0
08-01-2021 18.6 (00:00) 13 (00:00) 15.8 21.67 (00:30) 14.72 (00:20) 6.4 3.8 0 2.6 0
07-01-2021 19.2 (10:10) 15.6 (00:00) 17.4 21.39 (22:30) 15 (22:50) 5.2 0 0 5.2 0
06-01-2021 20.4 (12:30) 16.3 (00:00) 18.3 22.78 (11:30) 16.11 (11:30) 2.4 0 0 2.4 0
05-01-2021 20.2 (13:30) 15.2 (00:00) 17.7 11.94 (13:00) 8.61 (02:50) 0 0 0 0 0
04-01-2021 16.4 (13:00) 10.9 (00:00) 13.6 11.67 (20:20) 8.33 (20:40) 0 0 0 0 0
03-01-2021 15.9 (10:40) 11.4 (00:00) 13.6 8.61 (00:10) 6.11 (00:40) 0 0 0 0 0
02-01-2021 16.7 (11:30) 14.2 (00:00) 15.5 13.06 (10:00) 7.5 (10:00) 0 0 0 0 0
01-01-2021 17 (14:10) 14.2 (00:00) 15.6 15 (12:10) 8.33 (11:10) 0 0 0 0 0
31-12-2020 16.4 (13:10) 12.9 (00:00) 14.6 14.72 (23:40) 8.33 (23:40) 0.6 0.6 0 0 0
30-12-2020 17.6 (13:10) 12.7 (00:00) 15.2 10.83 (16:00) 6.11 (10:10) 2 0.2 0.8 0 1
29-12-2020 17.7 (11:50) 13.7 (00:00) 15.7 8.89 (10:30) 6.11 (10:10) 0 0 0 0 0
28-12-2020 21.6 (12:00) 13.9 (00:00) 17.8 9.17 (13:10) 6.67 (05:30) 0 0 0 0 0
27-12-2020 21.9 (15:20) 14.9 (00:00) 18.4 14.17 (12:10) 10 (09:10) 0 0 0 0 0
26-12-2020 21.5 (16:00) 15 (00:00) 18.3 11.11 (11:40) 8.61 (10:30) 0 0 0 0 0
25-12-2020 20.6 (14:40) 16.3 (00:00) 18.4 15.28 (00:30) 10.56 (00:40) 0 0 0 0 0
24-12-2020 18.7 (12:20) 14.9 (00:00) 16.8 14.72 (10:50) 10.83 (10:40) 0 0 0 0 0
23-12-2020 19.3 (13:10) 14 (00:00) 16.6 16.67 (22:40) 11.39 (22:40) 0 0 0 0 0
22-12-2020 21.8 (15:20) 12.2 (00:00) 17 10 (11:10) 7.78 (11:20) 0 0 0 0 0
21-12-2020 19.7 (14:40) 13.5 (00:00) 16.6 8.06 (03:40) 5.83 (13:00) 0 0 0 0 0
20-12-2020 19.3 (13:20) 13 (00:00) 16.1 9.44 (20:40) 6.11 (16:50) 0.6 0 0 0.6 0
19-12-2020 17.9 (14:50) 14.3 (00:00) 16.1 8.61 (00:50) 5 (02:10) 0 0 0 0 0

Gráficas

Temp. máximas Temp. mínimas Temp. medias Precipitaciones Rachas de viento máximas Velocidades máximas media en intervalos de 10 minutos

Datos horarios

Fecha y hora oficial Temperatura (ºC) Velocidad del viento (km/h) Dirección del viento Racha (km/h) Dirección de racha Precipitación (mm) Presión (hPa) Tendencia (hPa) Humedad (%)
2021-01-17 23:00:00 13.5 12 Nordeste 26 Nordeste 0 -- -- 83
2021-01-17 22:00:00 13.7 13 Nordeste 23 Nordeste 0 -- -- 84
2021-01-17 21:00:00 13.6 14 Nordeste 23 Nordeste 0 -- -- 87
2021-01-17 20:00:00 14.2 10 Nordeste 19 Nordeste 0 -- -- 82
2021-01-17 19:00:00 14.6 8 Norte 20 Nordeste 0 -- -- 81
2021-01-17 18:00:00 15.7 13 Nordeste 26 Norte 0 -- -- 75
2021-01-17 17:00:00 17 12 Este 23 Este 0 -- -- 63
2021-01-17 16:00:00 17.5 13 Este 23 Este 0 -- -- 61
2021-01-17 15:00:00 17.3 13 Este 27 Este 0 -- -- 65
2021-01-17 14:00:00 17.1 17 Este 26 Este 0 -- -- 67
2021-01-17 13:00:00 17.4 13 Este 25 Este 0 -- -- 64
2021-01-17 12:00:00 17.2 10 Nordeste 23 Nordeste 0 -- -- 65
2021-01-17 11:00:00 16 9 Este 18 Nordeste 0 -- -- 69
2021-01-17 10:00:00 15.5 14 Nordeste 22 Este 0 -- -- 70
2021-01-17 09:00:00 14.4 14 Este 20 Este 0 -- -- 75
2021-01-17 08:00:00 13.8 10 Nordeste 28 Nordeste 0 -- -- 78
2021-01-17 07:00:00 14 19 Nordeste 31 Nordeste 0 -- -- 75
2021-01-17 06:00:00 13.8 20 Nordeste 32 Nordeste 0 -- -- 77
2021-01-17 05:00:00 13.9 22 Nordeste 40 Nordeste 0 -- -- 77
2021-01-17 04:00:00 13.9 23 Nordeste 37 Nordeste 0 -- -- 76
2021-01-17 03:00:00 13.9 18 Nordeste 30 Nordeste 0 -- -- 76
2021-01-17 02:00:00 13.8 20 Nordeste 35 Nordeste 0 -- -- 76
2021-01-17 01:00:00 13.8 20 Nordeste 36 Nordeste 0 -- -- 75
2021-01-17 00:00:00 13.7 21 Nordeste 39 Nordeste 0 -- -- 75
2021-01-16 23:00:00 13.7 22 Nordeste 42 Nordeste 0 -- -- 75
2021-01-16 22:00:00 13.7 24 Nordeste 40 Nordeste 0 -- -- 75
2021-01-16 21:00:00 13.7 22 Nordeste 37 Norte 0 -- -- 73
2021-01-16 20:00:00 13.7 22 Nordeste 41 Nordeste 0 -- -- 71
2021-01-16 19:00:00 14.2 24 Nordeste 44 Nordeste 0 -- -- 69
2021-01-16 18:00:00 14.4 25 Nordeste 40 Nordeste 0 -- -- 67
2021-01-16 17:00:00 14.9 26 Nordeste 45 Nordeste 0 -- -- 71
2021-01-16 16:00:00 15.1 24 Nordeste 42 Norte 0 -- -- 67
2021-01-16 15:00:00 15.8 22 Nordeste 40 Nordeste 0 -- -- 68
2021-01-16 14:00:00 16.3 24 Nordeste 43 Nordeste 0 -- -- 65
2021-01-16 13:00:00 16.4 28 Nordeste 48 Nordeste 0 -- -- 61
2021-01-16 12:00:00 16.3 24 Nordeste 46 Nordeste 0 -- -- 60
2021-01-16 11:00:00 16.2 32 Nordeste 51 Nordeste 0 -- -- 65
2021-01-16 10:00:00 15.6 35 Nordeste 55 Nordeste 0 -- -- 67
2021-01-16 09:00:00 14.7 33 Nordeste 54 Nordeste 0 -- -- 67
2021-01-16 08:00:00 13.9 23 Nordeste 44 Nordeste 0 -- -- 72
2021-01-16 07:00:00 13.9 29 Nordeste 48 Nordeste 0 -- -- 69
2021-01-16 06:00:00 13.9 26 Nordeste 47 Nordeste 0 -- -- 71
2021-01-16 05:00:00 13.8 24 Nordeste 47 Nordeste 0 -- -- 70
2021-01-16 04:00:00 13.8 26 Nordeste 49 Nordeste 0 -- -- 71
2021-01-16 03:00:00 14 28 Nordeste 47 Nordeste 0 -- -- 72
2021-01-16 02:00:00 13.9 25 Nordeste 46 Nordeste 0 -- -- 72
2021-01-16 01:00:00 13.9 29 Nordeste 42 Nordeste 0 -- -- 72
2021-01-16 00:00:00 13.9 26 Nordeste 50 Nordeste 0 -- -- 70
2021-01-15 23:00:00 13.9 26 Nordeste 54 Nordeste 0 -- -- 69
2021-01-15 22:00:00 13.7 24 Nordeste 48 Nordeste 0 -- -- 70
2021-01-15 21:00:00 14.2 29 Nordeste 47 Norte 0 -- -- 73
2021-01-15 20:00:00 14.2 24 Nordeste 46 Nordeste 0 -- -- 68
2021-01-15 19:00:00 14.1 25 Nordeste 45 Nordeste 0 -- -- 64
2021-01-15 18:00:00 14.6 22 Nordeste 37 Nordeste 0 -- -- 68
2021-01-15 17:00:00 14.9 24 Nordeste 44 Nordeste 0 -- -- 62
2021-01-15 16:00:00 15.3 23 Nordeste 48 Nordeste 0 -- -- 66
2021-01-15 15:00:00 15.5 27 Nordeste 48 Nordeste 0 -- -- 61
2021-01-15 14:00:00 15.3 23 Nordeste 48 Norte 0 -- -- 59
2021-01-15 13:00:00 15.4 30 Nordeste 49 Nordeste 0 -- -- 61
2021-01-15 12:00:00 15.4 23 Nordeste 48 Nordeste 0 -- -- 58
2021-01-15 11:00:00 14.7 23 Nordeste 41 Nordeste 0 -- -- 68
2021-01-15 10:00:00 14.2 25 Nordeste 48 Nordeste 0 -- -- 62
2021-01-15 09:00:00 14.1 25 Nordeste 42 Norte 0 -- -- 65
2021-01-15 08:00:00 13.7 23 Nordeste 43 Nordeste 0 -- -- 67
2021-01-15 07:00:00 13.5 27 Nordeste 37 Nordeste 0 -- -- 72
2021-01-15 06:00:00 13.5 21 Nordeste 40 Nordeste 0 -- -- 66
2021-01-15 05:00:00 13.1 18 Nordeste 42 Nordeste 0 -- -- 68
2021-01-15 04:00:00 13.4 27 Nordeste 51 Nordeste 0 -- -- 64
2021-01-15 03:00:00 13.8 26 Nordeste 46 Nordeste 0 -- -- 62
2021-01-15 02:00:00 13.7 29 Nordeste 48 Nordeste 0 -- -- 66
2021-01-15 01:00:00 13.7 29 Nordeste 43 Nordeste 0 -- -- 67
2021-01-15 00:00:00 13.7 24 Nordeste 58 Nordeste 0 -- -- 65
2021-01-14 23:00:00 13.7 23 Nordeste 44 Norte 0 -- -- 65
2021-01-14 22:00:00 13.7 25 Nordeste 58 Nordeste 0 -- -- 63
2021-01-14 21:00:00 13.7 19 Nordeste 39 Nordeste 0 -- -- 64
2021-01-14 20:00:00 13.7 23 Nordeste 47 Nordeste 0 -- -- 68
2021-01-14 19:00:00 14.3 25 Nordeste 41 Este 0 -- -- 63
2021-01-14 18:00:00 14.6 27 Nordeste 49 Nordeste 0 -- -- 66
2021-01-14 17:00:00 15 26 Nordeste 46 Nordeste 0 -- -- 66
2021-01-14 16:00:00 15.7 20 Nordeste 40 Nordeste 0 -- -- 60
2021-01-14 15:00:00 15.9 21 Nordeste 37 Nordeste 0 -- -- 55
2021-01-14 14:00:00 15.2 20 Nordeste 36 Nordeste 0 -- -- 60
2021-01-14 13:00:00 14.8 23 Nordeste 38 Nordeste 0 -- -- 64
2021-01-14 12:00:00 15.5 18 Nordeste 30 Este 0 -- -- 60
2021-01-14 11:00:00 15.7 21 Nordeste 30 Nordeste 0 -- -- 63
2021-01-14 10:00:00 14.7 19 Nordeste 25 Nordeste 0 -- -- 71
2021-01-14 09:00:00 12.9 13 Nordeste 17 Nordeste 0 -- -- 79
2021-01-14 08:00:00 10.5 12 Nordeste 21 Nordeste 0 -- -- 87
2021-01-14 07:00:00 11.8 16 Nordeste 27 Nordeste 0 -- -- 79
2021-01-14 06:00:00 11.5 16 Nordeste 21 Nordeste 0 -- -- 84
2021-01-14 05:00:00 9.6 10 Nordeste 13 Nordeste 0 -- -- 89
2021-01-14 04:00:00 9.7 10 Este 14 Este 0 -- -- 86
2021-01-14 03:00:00 10.9 8 Nordeste 12 Nordeste 0 -- -- 84
2021-01-14 02:00:00 11.6 6 Este 12 Nordeste 0 -- -- 81
2021-01-14 01:00:00 11.7 7 Nordeste 12 Este 0 -- -- 77
2021-01-14 00:00:00 11.5 5 Nordeste 12 Nordeste 0 -- -- 75
2021-01-13 23:00:00 11.8 7 Nordeste 11 Nordeste 0 -- -- 72
2021-01-13 22:00:00 11.9 6 Nordeste 10 Nordeste 0 -- -- 71
2021-01-13 21:00:00 12.1 5 Nordeste 6 Nordeste 0 -- -- 73
2021-01-13 20:00:00 13 4 Nordeste 8 Nordeste 0 -- -- 70
2021-01-13 19:00:00 13.7 7 Este 21 Nordeste 0 -- -- 68
2021-01-13 18:00:00 15.5 15 Nordeste 28 Norte 0 -- -- 60
2021-01-13 17:00:00 16.5 14 Nordeste 22 Nordeste 0 -- -- 58
2021-01-13 16:00:00 16.7 14 Nordeste 31 Nordeste 0 -- -- 56
2021-01-13 15:00:00 18.1 6 Sudeste 23 Este 0 -- -- 40
2021-01-13 14:00:00 17.8 9 Este 22 Sudeste 0 -- -- 42
2021-01-13 13:00:00 17 7 Sudeste 20 Este 0 -- -- 52
2021-01-13 12:00:00 16.8 11 Sudeste 28 Nordeste 0 -- -- 56
2021-01-13 11:00:00 15.6 11 Nordeste 19 Nordeste 0 -- -- 70
2021-01-13 10:00:00 14.5 10 Nordeste 15 Nordeste 0 -- -- 77
2021-01-13 09:00:00 12.1 6 Nordeste 14 Nordeste 0 -- -- 83
2021-01-13 08:00:00 10.5 8 Nordeste 12 Nordeste 0 -- -- 85
2021-01-13 07:00:00 10.9 11 Nordeste 24 Nordeste 0 -- -- 81
2021-01-13 06:00:00 11.2 14 Nordeste 27 Nordeste 0 -- -- 82
2021-01-13 05:00:00 12.5 21 Nordeste 38 Nordeste 0 -- -- 77
2021-01-13 04:00:00 13 24 Nordeste 45 Nordeste 0 -- -- 75
2021-01-13 03:00:00 13.1 29 Nordeste 43 Nordeste 0 -- -- 76
2021-01-13 02:00:00 13 22 Nordeste 38 Nordeste 0 -- -- 78
2021-01-13 01:00:00 13.1 25 Nordeste 41 Nordeste 0 -- -- 77
2021-01-13 00:00:00 13 24 Nordeste 39 Nordeste 0 -- -- 77
2021-01-12 23:00:00 12.6 20 Nordeste 28 Nordeste 0 -- -- 78
2021-01-12 22:00:00 11.5 9 Nordeste 17 Este 0 -- -- 81
2021-01-12 21:00:00 11.6 6 Nordeste 15 Este 0 -- -- 80
2021-01-12 20:00:00 12.4 11 Este 18 Este 0 -- -- 78
2021-01-12 19:00:00 13.3 12 Este 22 Este 0 -- -- 75
2021-01-12 18:00:00 14.2 18 Este 25 Este 0 -- -- 71
2021-01-12 17:00:00 14.7 18 Nordeste 28 Nordeste 0 -- -- 69
2021-01-12 16:00:00 15 17 Nordeste 27 Nordeste 0 -- -- 66
2021-01-12 15:00:00 15.5 18 Este 31 Nordeste 0 -- -- 66
2021-01-12 14:00:00 15.6 24 Nordeste 32 Nordeste 0 -- -- 66
2021-01-12 13:00:00 15.4 18 Nordeste 25 Este 0 -- -- 59
2021-01-12 12:00:00 14.6 18 Nordeste 24 Nordeste 0 -- -- 75
2021-01-12 11:00:00 14.2 14 Nordeste 25 Nordeste 0 -- -- 75
2021-01-12 10:00:00 14.6 13 Nordeste 24 Nordeste 0 -- -- 66
2021-01-12 09:00:00 13.6 12 Nordeste 21 Nordeste 0 -- -- 66
2021-01-12 08:00:00 12 6 Nordeste 16 Nordeste 0 -- -- 77
2021-01-12 07:00:00 11.7 5 Nordeste 9 Este 0 -- -- 80
2021-01-12 06:00:00 12.2 9 Nordeste 17 Nordeste 0 -- -- 77
2021-01-12 05:00:00 12.5 9 Nordeste 21 Nordeste 0 -- -- 77
2021-01-12 04:00:00 11.4 11 Este 21 Este 0 -- -- 86
2021-01-12 03:00:00 11.9 12 Nordeste 22 Nordeste 0 -- -- 85
2021-01-12 02:00:00 11.6 6 Nordeste 19 Nordeste 0 -- -- 82
2021-01-12 01:00:00 12.1 8 Nordeste 13 Nordeste 0 -- -- 81
2021-01-12 00:00:00 12 8 Nordeste 14 Nordeste 0 -- -- 82
2021-01-11 23:00:00 12 8 Nordeste 32 Nordeste 0 -- -- 81
2021-01-11 22:00:00 13.4 17 Nordeste 29 Nordeste 0 -- -- 74
2021-01-11 21:00:00 12.4 15 Nordeste 26 Nordeste 0 -- -- 78
2021-01-11 20:00:00 13.2 17 Nordeste 26 Norte 0 -- -- 76
2021-01-11 19:00:00 12.8 11 Norte 28 Nordeste 0 -- -- 77
2021-01-11 18:00:00 13.6 16 Nordeste 41 Nordeste 0 -- -- 77
2021-01-11 17:00:00 14.4 22 Norte 34 Norte 0 -- -- 72
2021-01-11 16:00:00 14.3 24 Norte 42 Norte 0 -- -- 72
2021-01-11 15:00:00 14.2 19 Norte 39 Nordeste 0 -- -- 80
2021-01-11 14:00:00 13.6 23 Norte 33 Norte 1.6 -- -- 77
2021-01-11 13:00:00 14.5 18 Nordeste 37 Norte 0 -- -- 75
2021-01-11 12:00:00 14.9 21 Norte 38 Norte 0 -- -- 72
2021-01-11 11:00:00 14.6 20 Norte 31 Noroeste 0 -- -- 69
2021-01-11 10:00:00 13 9 Norte 31 Nordeste 0.2 -- -- 83
2021-01-11 09:00:00 12.3 19 Norte 33 Norte 0.8 -- -- 84
2021-01-11 08:00:00 12.1 17 Norte 33 Norte 1 -- -- 82
2021-01-11 07:00:00 12.8 10 Norte 30 Noroeste 0 -- -- 75
2021-01-11 06:00:00 12.9 16 Norte 32 Norte 0 -- -- 76
2021-01-11 05:00:00 12.8 18 Norte 36 Norte 0 -- -- 69
2021-01-11 04:00:00 12.9 21 Norte 35 Noroeste 0 -- -- 71
2021-01-11 03:00:00 12.7 16 Norte 31 Norte 0 -- -- 70
2021-01-11 02:00:00 12.5 19 Noroeste 39 Noroeste 0 -- -- 66
2021-01-11 01:00:00 12.5 16 Norte 31 Norte 0 -- -- 68
2021-01-11 00:00:00 12.3 17 Norte 38 Noroeste 0 -- -- 63
2021-01-10 23:00:00 12.7 22 Noroeste 42 Norte 0 -- -- 67
2021-01-10 22:00:00 12.7 22 Norte 41 Noroeste 0 -- -- 74
2021-01-10 21:00:00 12.9 24 Noroeste 45 Norte 0 -- -- 66
2021-01-10 20:00:00 12.9 22 Norte 40 Norte 0 -- -- 76
2021-01-10 19:00:00 11.8 24 Noroeste 54 Norte 0.4 -- -- 90
2021-01-10 18:00:00 12.9 25 Norte 47 Noroeste 0.2 -- -- 84
2021-01-10 17:00:00 13.7 29 Noroeste 53 Noroeste 0 -- -- 78
2021-01-10 16:00:00 14.8 34 Noroeste 51 Noroeste 0 -- -- 72
2021-01-10 15:00:00 14.7 32 Noroeste 55 Noroeste 0.4 -- -- 72
2021-01-10 14:00:00 13.1 34 Noroeste 60 Noroeste 0 -- -- 81
2021-01-10 13:00:00 14.4 33 Noroeste 51 Noroeste 0.6 -- -- 80
2021-01-10 12:00:00 14.2 28 Noroeste 55 Noroeste 0.6 -- -- 86
2021-01-10 11:00:00 14.4 27 Noroeste 49 Noroeste 0 -- -- 75
2021-01-10 10:00:00 13.5 38 Noroeste 55 Noroeste 1 -- -- 80
2021-01-10 09:00:00 13.2 21 Noroeste 49 Noroeste 0 -- -- 77
2021-01-10 08:00:00 13.3 37 Noroeste 55 Noroeste 0 -- -- 72
2021-01-10 07:00:00 12.5 28 Noroeste 52 Noroeste 0.4 -- -- 80
2021-01-10 06:00:00 12.8 28 Noroeste 67 Noroeste 0 -- -- 74
2021-01-10 05:00:00 13.4 32 Noroeste 58 Noroeste 0 -- -- 73
2021-01-10 04:00:00 13.5 31 Noroeste 53 Noroeste 0 -- -- 69
2021-01-10 03:00:00 13.1 23 Noroeste 49 Noroeste 0.2 -- -- 76
2021-01-10 02:00:00 12.1 24 Noroeste 44 Noroeste 2 -- -- 85
2021-01-10 01:00:00 13 28 Noroeste 45 Noroeste 0 -- -- 70
2021-01-10 00:00:00 12.8 19 Noroeste 37 Noroeste 0 -- -- 69
2021-01-09 23:00:00 12.9 19 Norte 40 Norte 0 -- -- 74
2021-01-09 22:00:00 13.1 30 Noroeste 47 Noroeste 0 -- -- 66
2021-01-09 21:00:00 13.2 19 Norte 38 Norte 0 -- -- 71
2021-01-09 20:00:00 12.9 20 Noroeste 38 Norte 0 -- -- 62
2021-01-09 19:00:00 13.1 25 Noroeste 42 Noroeste 0 -- -- 69
2021-01-09 18:00:00 13.1 22 Norte 48 Norte 0 -- -- 72
2021-01-09 17:00:00 13.1 17 Norte 44 Norte 0 -- -- 75
2021-01-09 16:00:00 13.2 28 Noroeste 47 Norte 0 -- -- 71
2021-01-09 15:00:00 13 22 Noroeste 42 Noroeste 0 -- -- 74
2021-01-09 14:00:00 12.5 18 Noroeste 42 Norte 0 -- -- 78
2021-01-09 13:00:00 13.1 24 Norte 40 Noroeste 0 -- -- 77
2021-01-09 12:00:00 11.5 12 Norte 58 Noroeste 2.6 -- -- 95
2021-01-09 11:00:00 13.5 20 Noroeste 38 Noroeste 0 -- -- 68
2021-01-09 10:00:00 13.1 22 Noroeste 37 Noroeste 0 -- -- 70
2021-01-09 09:00:00 12.9 21 Noroeste 45 Noroeste 0 -- -- 76
2021-01-09 08:00:00 12.5 30 Noroeste 44 Noroeste 0 -- -- 70
2021-01-09 07:00:00 10.6 4 Oeste 28 Oeste 3.4 -- -- 89
2021-01-09 06:00:00 11.8 10 Norte 21 Norte 0.2 -- -- 89
2021-01-09 05:00:00 11 5 Norte 41 Noroeste 1.6 -- -- 90
2021-01-09 04:00:00 12.3 15 Noroeste 51 Noroeste 0.4 -- -- 77
2021-01-09 03:00:00 13.1 21 Noroeste 27 Noroeste 0 -- -- 71
2021-01-09 02:00:00 13.2 14 Noroeste 32 Noroeste 0 -- -- 71
2021-01-09 01:00:00 12.3 10 Noroeste 27 Noroeste 0 -- -- 76
2021-01-09 00:00:00 13.2 15 Noroeste 25 Norte 0 -- -- 74
2021-01-08 23:00:00 13.1 13 Noroeste 39 Noroeste 0 -- -- 78
2021-01-08 22:00:00 13.9 15 Noroeste 27 Noroeste 0 -- -- 71
2021-01-08 21:00:00 13.6 16 Noroeste 29 Noroeste 0 -- -- 74
2021-01-08 20:00:00 13.6 14 Norte 30 Norte 0 -- -- 76
2021-01-08 19:00:00 14 21 Noroeste 35 Noroeste 0 -- -- 75
2021-01-08 18:00:00 14.1 21 Noroeste 36 Norte 0 -- -- 79
2021-01-08 17:00:00 14.8 22 Noroeste 42 Noroeste 0.2 -- -- 80
2021-01-08 16:00:00 14.8 21 Noroeste 44 Norte 0 -- -- 84
2021-01-08 15:00:00 14.4 19 Noroeste 41 Noroeste 1.8 -- -- 91
2021-01-08 14:00:00 15 29 Noroeste 40 Noroeste 0 -- -- 83
2021-01-08 13:00:00 14.7 30 Noroeste 50 Noroeste 0.6 -- -- 91
2021-01-08 12:00:00 16.4 31 Noroeste 46 Noroeste 0 -- -- 82
2021-01-08 11:00:00 16.7 31 Oeste 45 Oeste 0 -- -- 83
2021-01-08 10:00:00 16 31 Oeste 47 Oeste 0 -- -- 87
2021-01-08 09:00:00 15.7 28 Oeste 50 Oeste 0 -- -- 86
2021-01-08 08:00:00 15.6 39 Oeste 62 Oeste 0 -- -- 87
2021-01-08 07:00:00 16.4 34 Oeste 63 Oeste 0 -- -- 88
2021-01-08 06:00:00 16.6 36 Oeste 63 Sudoeste 3.4 -- -- 92
2021-01-08 05:00:00 17.4 41 Sudoeste 69 Sudoeste 0.4 -- -- 91
2021-01-08 04:00:00 17.7 40 Sudoeste 66 Sudoeste 0 -- -- 90
2021-01-08 03:00:00 17.7 43 Sudoeste 75 Sudoeste 0 -- -- 91
2021-01-08 02:00:00 18.1 50 Sudoeste 74 Sudoeste 0 -- -- 86
2021-01-08 01:00:00 18.2 46 Sudoeste 78 Sudoeste 0 -- -- 86
2021-01-08 00:00:00 18.6 52 Sudoeste 77 Sudoeste 0 -- -- 86
2021-01-07 23:00:00 18.6 52 Sudoeste 77 Sudoeste 0 -- -- 87
2021-01-07 22:00:00 18.6 40 Sudoeste 66 Sudoeste 0 -- -- 89
2021-01-07 21:00:00 18.4 46 Sudoeste 64 Sudoeste 0 -- -- 90
2021-01-07 20:00:00 18.3 40 Sudoeste 58 Sudoeste 0 -- -- 92
2021-01-07 19:00:00 18.4 39 Sudoeste 60 Sudoeste 0 -- -- 93
2021-01-07 18:00:00 18.3 36 Sudoeste 58 Sudoeste 0 -- -- 92
2021-01-07 17:00:00 18.4 31 Sudoeste 54 Sudoeste 0 -- -- 91
2021-01-07 16:00:00 18.8 33 Sudoeste 61 Sudoeste 1.6 -- -- 90
2021-01-07 15:00:00 17.8 33 Sudoeste 60 Sudoeste 0 -- -- 93
2021-01-07 14:00:00 15.9 28 Sudoeste 65 Sudoeste 2.4 -- -- 91
2021-01-07 13:00:00 17.1 40 Sudoeste 69 Sudoeste 1.2 -- -- 86
2021-01-07 12:00:00 18.4 46 Sudoeste 70 Sudoeste 0 -- -- 92
2021-01-07 11:00:00 18.8 42 Sudoeste 68 Sudoeste 0 -- -- 87
2021-01-07 10:00:00 19 50 Sudoeste 70 Sudoeste 0 -- -- 83
2021-01-07 09:00:00 18.5 39 Sudoeste 56 Sudoeste 0 -- -- 84
2021-01-07 08:00:00 17.9 39 Sudoeste 64 Sudoeste 0 -- -- 91
2021-01-07 07:00:00 17.9 42 Sudoeste 61 Sudoeste 0 -- -- 90
2021-01-07 06:00:00 17.9 42 Sudoeste 59 Sudoeste 0 -- -- 90
2021-01-07 05:00:00 17.9 35 Sudoeste 50 Sudoeste 0 -- -- 92
2021-01-07 04:00:00 17.7 29 Sudoeste 41 Sudoeste 0 -- -- 92
2021-01-07 03:00:00 17.6 21 Sudoeste 35 Sudoeste 0 -- -- 93
2021-01-07 02:00:00 17.6 19 Sudoeste 34 Sudoeste 0 -- -- 93
2021-01-07 01:00:00 17.8 19 Sur 32 Sudoeste 0 -- -- 92
2021-01-07 00:00:00 17.6 18 Sudoeste 24 Sudoeste 0 -- -- 93
2021-01-06 23:00:00 17.7 15 Sudoeste 32 Sudoeste 0 -- -- 90
2021-01-06 22:00:00 18.1 23 Sudoeste 34 Sudoeste 0 -- -- 90
2021-01-06 21:00:00 18.3 21 Sudoeste 32 Sudoeste 0 -- -- 91
2021-01-06 20:00:00 17.8 20 Sudoeste 37 Sudoeste 0 -- -- 91
2021-01-06 19:00:00 18 25 Sudoeste 48 Sudoeste 0 -- -- 92
2021-01-06 18:00:00 18.5 36 Oeste 53 Sudoeste 0.4 -- -- 92
2021-01-06 17:00:00 18.8 29 Sudoeste 59 Oeste 0.4 -- -- 93
2021-01-06 16:00:00 18.8 33 Oeste 59 Sudoeste 1.6 -- -- 92
2021-01-06 15:00:00 19.2 43 Sudoeste 63 Sudoeste 0 -- -- 90
2021-01-06 14:00:00 19.8 46 Sudoeste 67 Sudoeste 0 -- -- 85
2021-01-06 13:00:00 20.3 44 Sudoeste 70 Sudoeste 0 -- -- 81
2021-01-06 12:00:00 20.1 49 Sudoeste 82 Sudoeste 0 -- -- 81
2021-01-06 11:00:00 20 50 Sudoeste 75 Sudoeste 0 -- -- 80
2021-01-06 10:00:00 18.8 51 Sudoeste 66 Sudoeste 0 -- -- 87
2021-01-06 09:00:00 18 37 Sudoeste 60 Sudoeste 0 -- -- 90
2021-01-06 08:00:00 17.7 39 Sudoeste 63 Sudoeste 0 -- -- 88
2021-01-06 07:00:00 17.3 35 Sudoeste 50 Sudoeste 0 -- -- 86
2021-01-06 06:00:00 17.3 33 Sudoeste 47 Sudoeste 0 -- -- 88
2021-01-06 05:00:00 17.3 32 Sudoeste 49 Sudoeste 0 -- -- 88
2021-01-06 04:00:00 17 31 Sudoeste 44 Sudoeste 0 -- -- 90
2021-01-06 03:00:00 16.7 14 Sur 24 Sur 0 -- -- 92
2021-01-06 02:00:00 16.6 18 Sur 26 Sur 0 -- -- 92
2021-01-06 01:00:00 16.4 17 Sur 26 Sur 0 -- -- 88
2021-01-06 00:00:00 16.4 18 Sur 26 Sur 0 -- -- 91
2021-01-05 23:00:00 16.3 14 Sur 21 Sur 0 -- -- 90
2021-01-05 22:00:00 16.5 11 Sudoeste 18 Sur 0 -- -- 90
2021-01-05 21:00:00 16.9 12 Sudoeste 19 Sudoeste 0 -- -- 88
2021-01-05 20:00:00 16.8 11 Sudoeste 24 Oeste 0 -- -- 89
2021-01-05 19:00:00 17.7 17 Oeste 37 Oeste 0 -- -- 85
2021-01-05 18:00:00 18.3 24 Oeste 34 Oeste 0 -- -- 78
2021-01-05 17:00:00 19.3 21 Oeste 37 Oeste 0 -- -- 76
2021-01-05 16:00:00 19.4 27 Oeste 39 Oeste 0 -- -- 75
2021-01-05 15:00:00 19.7 24 Oeste 42 Oeste 0 -- -- 75
2021-01-05 14:00:00 20.1 26 Oeste 38 Oeste 0 -- -- 74
2021-01-05 13:00:00 19.5 26 Oeste 43 Oeste 0 -- -- 75
2021-01-05 12:00:00 18.6 25 Oeste 38 Oeste 0 -- -- 80
2021-01-05 11:00:00 18.2 23 Oeste 35 Oeste 0 -- -- 82
2021-01-05 10:00:00 17.8 23 Oeste 35 Oeste 0 -- -- 85
2021-01-05 09:00:00 17.3 15 Oeste 35 Oeste 0 -- -- 89
2021-01-05 08:00:00 17.3 24 Oeste 37 Sudoeste 0 -- -- 89
2021-01-05 07:00:00 17.2 22 Oeste 38 Sudoeste 0 -- -- 91
2021-01-05 06:00:00 17 24 Sudoeste 37 Oeste 0 -- -- 92
2021-01-05 05:00:00 16.8 22 Sudoeste 38 Sudoeste 0 -- -- 91
2021-01-05 04:00:00 16.3 26 Sudoeste 38 Sudoeste 0 -- -- 92
2021-01-05 03:00:00 16.1 28 Sudoeste 42 Sudoeste 0 -- -- 90
2021-01-05 02:00:00 16.2 27 Sudoeste 42 Sudoeste 0 -- -- 81
2021-01-05 01:00:00 15.6 17 Sudoeste 28 Sudoeste 0 -- -- 81
2021-01-05 00:00:00 15.3 16 Sur 26 Sur 0 -- -- 81
2021-01-04 23:00:00 14.7 18 Sur 32 Sur 0 -- -- 82
2021-01-04 22:00:00 15 22 Sur 33 Sur 0 -- -- 80
2021-01-04 21:00:00 14.8 26 Sur 42 Sur 0 -- -- 84
2021-01-04 20:00:00 14.7 26 Sur 39 Sur 0 -- -- 86
2021-01-04 19:00:00 15 16 Sudoeste 30 Sur 0 -- -- 84
2021-01-04 18:00:00 15.3 24 Sur 33 Sur 0 -- -- 80
2021-01-04 17:00:00 15.6 22 Sur 33 Sur 0 -- -- 75
2021-01-04 16:00:00 15.8 18 Sur 32 Sur 0 -- -- 72
2021-01-04 15:00:00 16.2 18 Sur 28 Sur 0 -- -- 68
2021-01-04 14:00:00 16.3 19 Sudeste 29 Sudeste 0 -- -- 65
2021-01-04 13:00:00 16.4 18 Sur 27 Sudeste 0 -- -- 64
2021-01-04 12:00:00 15.8 18 Sudeste 24 Sudeste 0 -- -- 65
2021-01-04 11:00:00 15.3 17 Sudeste 26 Sudeste 0 -- -- 67
2021-01-04 10:00:00 13.9 13 Sudeste 21 Sudeste 0 -- -- 75
2021-01-04 09:00:00 12.4 13 Sudeste 18 Sudeste 0 -- -- 79
2021-01-04 08:00:00 11.7 12 Sudeste 20 Sudeste 0 -- -- 81
2021-01-04 07:00:00 11 4 Este 14 Este 0 -- -- 83
2021-01-04 06:00:00 11.4 6 Sudeste 9 Sur 0 -- -- 83
2021-01-04 05:00:00 11.3 8 Sur 10 Sudeste 0 -- -- 83
2021-01-04 04:00:00 11.3 5 Sur 9 Sudeste 0 -- -- 84
2021-01-04 03:00:00 11.3 7 Sudeste 9 Sudeste 0 -- -- 83
2021-01-04 02:00:00 11.1 5 Sudeste 9 Este 0 -- -- 82
2021-01-04 01:00:00 11.4 9 Sudeste 11 Sur 0 -- -- 83
2021-01-04 00:00:00 11.6 0 Calma 8 Sudeste 0 -- -- 82
2021-01-03 23:00:00 12 3 Este 5 Este 0 -- -- 79
2021-01-03 22:00:00 12.9 4 Este 13 Este 0 -- -- 79
2021-01-03 21:00:00 13.3 5 Este 9 Este 0 -- -- 79
2021-01-03 20:00:00 13.4 5 Este 12 Este 0 -- -- 79
2021-01-03 19:00:00 14.1 9 Este 15 Nordeste 0 -- -- 75
2021-01-03 18:00:00 14.5 12 Nordeste 19 Nordeste 0 -- -- 72
2021-01-03 17:00:00 15.1 13 Nordeste 21 Nordeste 0 -- -- 67
2021-01-03 16:00:00 15.2 15 Nordeste 23 Nordeste 0 -- -- 67
2021-01-03 15:00:00 15.3 14 Nordeste 26 Nordeste 0 -- -- 65
2021-01-03 14:00:00 15.3 15 Nordeste 25 Nordeste 0 -- -- 63
2021-01-03 13:00:00 15.4 18 Nordeste 29 Nordeste 0 -- -- 63
2021-01-03 12:00:00 15.7 15 Nordeste 25 Nordeste 0 -- -- 66
2021-01-03 11:00:00 15.8 13 Nordeste 25 Nordeste 0 -- -- 60
2021-01-03 10:00:00 15 16 Nordeste 30 Este 0 -- -- 64
2021-01-03 09:00:00 14.4 18 Nordeste 27 Nordeste 0 -- -- 67
2021-01-03 08:00:00 13.8 12 Nordeste 25 Norte 0 -- -- 70
2021-01-03 07:00:00 13.5 10 Nordeste 18 Nordeste 0 -- -- 72
2021-01-03 06:00:00 13.2 7 Nordeste 13 Nordeste 0 -- -- 76
2021-01-03 05:00:00 13.4 5 Este 15 Nordeste 0 -- -- 75
2021-01-03 04:00:00 14.1 11 Nordeste 20 Nordeste 0 -- -- 70
2021-01-03 03:00:00 13.6 11 Nordeste 27 Nordeste 0 -- -- 74
2021-01-03 02:00:00 13.3 13 Nordeste 20 Nordeste 0 -- -- 77
2021-01-03 01:00:00 13.9 15 Nordeste 31 Nordeste 0 -- -- 76
2021-01-03 00:00:00 14.5 24 Nordeste 36 Nordeste 0 -- -- 68
2021-01-02 23:00:00 14.7 17 Nordeste 30 Este 0 -- -- 67
2021-01-02 22:00:00 14.5 18 Nordeste 27 Nordeste 0 -- -- 65
2021-01-02 21:00:00 14.9 14 Nordeste 30 Nordeste 0 -- -- 70
2021-01-02 20:00:00 14.9 18 Nordeste 44 Nordeste 0 -- -- 61
2021-01-02 19:00:00 15 22 Nordeste 36 Nordeste 0 -- -- 60
2021-01-02 18:00:00 15.2 19 Nordeste 36 Nordeste 0 -- -- 60
2021-01-02 17:00:00 15.5 21 Nordeste 35 Norte 0 -- -- 65
2021-01-02 16:00:00 16 19 Nordeste 36 Nordeste 0 -- -- 61
2021-01-02 15:00:00 16.4 21 Nordeste 37 Este 0 -- -- 60
2021-01-02 14:00:00 16.1 16 Norte 31 Nordeste 0 -- -- 61
2021-01-02 13:00:00 15.9 20 Norte 31 Noroeste 0 -- -- 71